createdAt,value
2018-08-10T00:00:36.234Z,948.24
2018-08-10T00:01:36.159Z,948.29
2018-08-10T00:02:36.159Z,948.31
2018-08-10T00:03:35.971Z,948.29
2018-08-10T00:04:35.879Z,948.29
2018-08-10T00:05:35.797Z,948.26
2018-08-10T00:06:35.721Z,948.22
2018-08-10T00:07:35.614Z,948.22
2018-08-10T00:08:35.531Z,948.25
2018-08-10T00:09:35.538Z,948.19
2018-08-10T00:10:35.353Z,948.22
2018-08-10T00:11:35.280Z,948.18
2018-08-10T00:12:35.213Z,948.19
2018-08-10T00:13:35.089Z,948.21
2018-08-10T00:14:34.997Z,948.20
2018-08-10T00:15:34.912Z,948.19
2018-08-10T00:16:34.937Z,948.16
2018-08-10T00:17:34.734Z,948.12
2018-08-10T00:18:34.650Z,948.16
2018-08-10T00:19:34.557Z,948.19
2018-08-10T00:20:34.468Z,948.23
2018-08-10T00:21:34.395Z,948.20
2018-08-10T00:22:34.297Z,948.26
2018-08-10T00:23:34.304Z,948.31
2018-08-10T00:24:34.116Z,948.32
2018-08-10T00:25:34.029Z,948.32
2018-08-10T00:26:33.960Z,948.27
2018-08-10T00:27:33.855Z,948.31
2018-08-10T00:28:33.768Z,948.34
2018-08-10T00:29:33.678Z,948.27
2018-08-10T00:30:33.699Z,948.28
2018-08-10T00:31:33.519Z,948.27
2018-08-10T00:32:33.414Z,948.25
2018-08-10T00:33:33.329Z,948.31
2018-08-10T00:34:33.240Z,948.34
2018-08-10T00:35:33.156Z,948.35
2018-08-10T00:36:33.083Z,948.39
2018-08-10T00:37:33.093Z,948.49
2018-08-10T00:38:32.889Z,948.49
2018-08-10T00:39:32.801Z,948.51
2018-08-10T00:40:32.711Z,948.50
2018-08-10T00:41:32.640Z,948.44
2018-08-10T00:42:32.540Z,948.39
2018-08-10T00:43:32.449Z,948.52
2018-08-10T00:44:32.460Z,948.55
2018-08-10T00:45:32.276Z,948.56
2018-08-10T00:46:32.205Z,948.60
2018-08-10T00:47:32.098Z,948.57
2018-08-10T00:48:32.009Z,948.64
2018-08-10T00:49:31.922Z,948.61
2018-08-10T00:50:31.834Z,948.61
2018-08-10T00:51:31.862Z,948.59
2018-08-10T00:52:31.657Z,948.62
2018-08-10T00:53:31.570Z,948.63
2018-08-10T00:54:31.481Z,948.59
2018-08-10T00:55:31.397Z,948.64
2018-08-10T00:56:31.322Z,948.64
2018-08-10T00:57:31.219Z,948.65
2018-08-10T00:58:31.240Z,948.65
2018-08-10T00:59:31.041Z,948.60
2018-08-10T01:00:30.955Z,948.62
2018-08-10T01:01:30.882Z,948.64
2018-08-10T01:02:30.780Z,948.64
2018-08-10T01:03:30.688Z,948.68
2018-08-10T01:04:30.601Z,948.67
2018-08-10T01:05:30.515Z,948.68
2018-08-10T01:06:30.450Z,948.68
2018-08-10T01:07:30.335Z,948.71
2018-08-10T01:08:30.249Z,948.61
2018-08-10T01:09:30.161Z,948.67
2018-08-10T01:10:30.072Z,948.57
2018-08-10T01:11:30.001Z,948.61
2018-08-10T01:12:29.895Z,948.62
2018-08-10T01:13:29.899Z,948.64
2018-08-10T01:14:29.723Z,948.69
2018-08-10T01:15:29.643Z,948.69
2018-08-10T01:16:29.564Z,948.70
2018-08-10T01:17:29.456Z,948.70
2018-08-10T01:18:29.371Z,948.70
2018-08-10T01:19:29.375Z,948.72
2018-08-10T01:20:29.195Z,948.72
2018-08-10T01:21:29.121Z,948.71
2018-08-10T01:22:29.015Z,948.68
2018-08-10T01:23:28.926Z,948.69
2018-08-10T01:24:28.841Z,948.65
2018-08-10T01:25:28.753Z,948.65
2018-08-10T01:26:28.679Z,948.60
2018-08-10T01:27:28.574Z,948.64
2018-08-10T01:28:28.524Z,948.60
2018-08-10T01:29:28.398Z,948.61
2018-08-10T01:30:28.336Z,948.65
2018-08-10T01:31:28.225Z,948.71
2018-08-10T01:32:28.151Z,948.69
2018-08-10T01:33:28.045Z,948.73
2018-08-10T01:34:27.961Z,948.69
2018-08-10T01:35:27.870Z,948.67
2018-08-10T01:36:27.783Z,948.68
2018-08-10T01:37:27.709Z,948.65
2018-08-10T01:38:27.608Z,948.64
2018-08-10T01:39:27.517Z,948.67
2018-08-10T01:40:27.431Z,948.68
2018-08-10T01:41:27.350Z,948.69
2018-08-10T01:42:27.272Z,948.63
2018-08-10T01:43:27.161Z,948.67
2018-08-10T01:44:27.074Z,948.69
2018-08-10T01:45:26.991Z,948.67
2018-08-10T01:46:26.899Z,948.64
2018-08-10T01:47:26.828Z,948.66
2018-08-10T01:48:26.722Z,948.62
2018-08-10T01:49:26.634Z,948.62
2018-08-10T01:50:26.546Z,948.70
2018-08-10T01:51:26.476Z,948.69
2018-08-10T01:52:26.391Z,948.66
2018-08-10T01:53:26.283Z,948.70
2018-08-10T01:54:26.199Z,948.78
2018-08-10T01:55:26.106Z,948.78
2018-08-10T01:56:26.020Z,948.71
2018-08-10T01:57:25.946Z,948.70
2018-08-10T01:58:25.845Z,948.72
2018-08-10T01:59:25.752Z,948.74
2018-08-10T02:00:25.663Z,948.75
2018-08-10T02:01:25.579Z,948.74
2018-08-10T02:02:25.504Z,948.80
2018-08-10T02:03:25.400Z,948.74
2018-08-10T02:04:25.316Z,948.75
2018-08-10T02:05:25.227Z,948.79
2018-08-10T02:06:25.138Z,948.78
2018-08-10T02:07:25.064Z,948.79
2018-08-10T02:08:24.960Z,948.80
2018-08-10T02:09:24.872Z,948.85
2018-08-10T02:10:24.787Z,948.84
2018-08-10T02:11:24.694Z,948.83
2018-08-10T02:12:24.621Z,948.84
2018-08-10T02:13:24.520Z,948.82
2018-08-10T02:14:24.430Z,948.83
2018-08-10T02:15:24.343Z,948.77
2018-08-10T02:16:24.255Z,948.79
2018-08-10T02:17:24.183Z,948.80
2018-08-10T02:18:24.077Z,948.81
2018-08-10T02:19:23.988Z,948.77
2018-08-10T02:20:23.903Z,948.71
2018-08-10T02:21:23.814Z,948.75
2018-08-10T02:22:23.739Z,948.73
2018-08-10T02:23:23.636Z,948.75
2018-08-10T02:24:23.549Z,948.71
2018-08-10T02:25:23.459Z,948.77
2018-08-10T02:26:23.372Z,948.74
2018-08-10T02:27:23.299Z,948.74
2018-08-10T02:28:23.303Z,948.74
2018-08-10T02:29:23.105Z,948.73
2018-08-10T02:30:23.019Z,948.72
2018-08-10T02:31:22.930Z,948.69
2018-08-10T02:32:22.860Z,948.71
2018-08-10T02:33:22.758Z,948.68
2018-08-10T02:34:22.677Z,948.65
2018-08-10T02:35:22.692Z,948.63
2018-08-10T02:36:22.486Z,948.65
2018-08-10T02:37:22.418Z,948.70
2018-08-10T02:38:22.313Z,948.68
2018-08-10T02:39:22.224Z,948.62
2018-08-10T02:40:22.137Z,948.69
2018-08-10T02:41:22.049Z,948.69
2018-08-10T02:42:22.083Z,948.68
2018-08-10T02:43:21.866Z,948.64
2018-08-10T02:44:21.782Z,948.68
2018-08-10T02:45:21.692Z,948.69
2018-08-10T02:46:21.606Z,948.71
2018-08-10T02:47:21.534Z,948.70
2018-08-10T02:48:21.427Z,948.71
2018-08-10T02:49:21.441Z,948.74
2018-08-10T02:50:21.252Z,948.76
2018-08-10T02:51:21.167Z,948.77
2018-08-10T02:52:21.090Z,948.78
2018-08-10T02:53:20.994Z,948.81
2018-08-10T02:54:20.896Z,948.80
2018-08-10T02:55:20.817Z,948.86
2018-08-10T02:56:20.832Z,948.80
2018-08-10T02:57:20.647Z,948.80
2018-08-10T02:58:20.542Z,948.82
2018-08-10T02:59:20.454Z,948.81
2018-08-10T03:00:20.368Z,948.82
2018-08-10T03:01:20.280Z,948.83
2018-08-10T03:02:20.207Z,948.86
2018-08-10T03:03:20.202Z,948.85
2018-08-10T03:04:20.015Z,948.89
2018-08-10T03:05:19.924Z,948.90
2018-08-10T03:06:19.838Z,948.91
2018-08-10T03:07:19.763Z,948.88
2018-08-10T03:08:19.664Z,948.95
2018-08-10T03:09:19.573Z,949.00
2018-08-10T03:10:19.588Z,948.97
2018-08-10T03:11:19.391Z,948.98
2018-08-10T03:12:19.324Z,948.98
2018-08-10T03:13:19.221Z,948.98
2018-08-10T03:14:19.130Z,949.03
2018-08-10T03:15:19.039Z,948.97
2018-08-10T03:16:18.950Z,949.12
2018-08-10T03:17:18.997Z,949.09
2018-08-10T03:18:18.776Z,949.13
2018-08-10T03:19:18.685Z,949.09
2018-08-10T03:20:18.598Z,949.15
2018-08-10T03:21:18.507Z,949.21
2018-08-10T03:22:18.484Z,949.14
2018-08-10T03:23:18.349Z,949.17
2018-08-10T03:24:18.243Z,949.16
2018-08-10T03:25:18.151Z,949.16
2018-08-10T03:26:18.066Z,949.18
2018-08-10T03:27:17.977Z,949.22
2018-08-10T03:28:17.902Z,949.19
2018-08-10T03:29:17.800Z,949.21
2018-08-10T03:30:17.710Z,949.18
2018-08-10T03:31:17.620Z,949.15
2018-08-10T03:32:17.535Z,949.19
2018-08-10T03:33:17.463Z,949.15
2018-08-10T03:34:17.358Z,949.22
2018-08-10T03:35:17.271Z,949.23
2018-08-10T03:36:17.178Z,949.31
2018-08-10T03:37:17.091Z,949.28
2018-08-10T03:38:17.015Z,949.29
2018-08-10T03:39:16.911Z,949.29
2018-08-10T03:40:16.823Z,949.32
2018-08-10T03:41:16.736Z,949.39
2018-08-10T03:42:16.644Z,949.39
2018-08-10T03:43:16.572Z,949.44
2018-08-10T03:44:16.468Z,949.51
2018-08-10T03:45:16.376Z,949.49
2018-08-10T03:46:16.288Z,949.52
2018-08-10T03:47:16.203Z,949.46
2018-08-10T03:48:16.128Z,949.52
2018-08-10T03:49:16.020Z,949.53
2018-08-10T03:50:15.937Z,949.56
2018-08-10T03:51:15.842Z,949.63
2018-08-10T03:52:15.754Z,949.63
2018-08-10T03:53:15.684Z,949.67
2018-08-10T03:54:15.576Z,949.65
2018-08-10T03:55:15.486Z,949.69
2018-08-10T03:56:15.437Z,949.70
2018-08-10T03:57:15.312Z,949.72
2018-08-10T03:58:15.238Z,949.72
2018-08-10T03:59:15.131Z,949.70
2018-08-10T04:00:15.039Z,949.71
2018-08-10T04:01:14.954Z,949.67
2018-08-10T04:02:14.863Z,949.67
2018-08-10T04:03:14.789Z,949.63
2018-08-10T04:04:14.683Z,949.66
2018-08-10T04:05:14.595Z,949.66
2018-08-10T04:06:14.508Z,949.73
2018-08-10T04:07:14.415Z,949.73
2018-08-10T04:08:14.340Z,949.75
2018-08-10T04:09:14.236Z,949.79
2018-08-10T04:10:14.169Z,949.82
2018-08-10T04:11:14.058Z,949.84
2018-08-10T04:12:13.963Z,949.85
2018-08-10T04:13:13.896Z,949.85
2018-08-10T04:14:13.897Z,949.82
2018-08-10T04:15:13.702Z,949.80
2018-08-10T04:16:13.606Z,949.84
2018-08-10T04:17:13.518Z,949.90
2018-08-10T04:18:13.445Z,949.91
2018-08-10T04:19:13.337Z,949.89
2018-08-10T04:20:13.250Z,949.91
2018-08-10T04:21:13.176Z,949.92
2018-08-10T04:22:13.070Z,949.91
2018-08-10T04:23:12.997Z,949.91
2018-08-10T04:24:12.893Z,949.93
2018-08-10T04:25:12.807Z,949.94
2018-08-10T04:26:12.714Z,949.93
2018-08-10T04:27:12.621Z,949.95
2018-08-10T04:28:12.549Z,949.94
2018-08-10T04:29:12.444Z,949.94
2018-08-10T04:30:12.354Z,949.91
2018-08-10T04:31:12.267Z,949.93
2018-08-10T04:32:12.181Z,949.97
2018-08-10T04:33:12.104Z,950.00
2018-08-10T04:34:11.995Z,950.02
2018-08-10T04:35:11.909Z,950.04
2018-08-10T04:36:11.818Z,950.05
2018-08-10T04:37:11.726Z,950.03
2018-08-10T04:38:11.655Z,950.02
2018-08-10T04:39:11.547Z,950.06
2018-08-10T04:40:11.459Z,950.04
2018-08-10T04:41:11.369Z,950.00
2018-08-10T04:42:11.280Z,950.04
2018-08-10T04:43:11.208Z,950.07
2018-08-10T04:44:11.101Z,950.08
2018-08-10T04:45:11.010Z,950.13
2018-08-10T04:46:10.921Z,950.13
2018-08-10T04:47:10.833Z,950.12
2018-08-10T04:48:10.808Z,950.18
2018-08-10T04:49:10.650Z,950.13
2018-08-10T04:50:10.576Z,950.18
2018-08-10T04:51:10.477Z,950.20
2018-08-10T04:52:10.383Z,950.24
2018-08-10T04:53:10.312Z,950.27
2018-08-10T04:54:10.208Z,950.31
2018-08-10T04:55:10.180Z,950.30
2018-08-10T04:56:10.029Z,950.29
2018-08-10T04:57:09.939Z,950.29
2018-08-10T04:58:09.863Z,950.32
2018-08-10T04:59:09.761Z,950.32
2018-08-10T05:00:09.669Z,950.35
2018-08-10T05:01:09.584Z,950.38
2018-08-10T05:02:09.495Z,950.39
2018-08-10T05:03:09.421Z,950.42
2018-08-10T05:04:09.312Z,950.39
2018-08-10T05:05:09.225Z,950.43
2018-08-10T05:06:09.133Z,950.45
2018-08-10T05:07:09.044Z,950.44
2018-08-10T05:08:08.960Z,950.43
2018-08-10T05:09:08.884Z,950.43
2018-08-10T05:10:08.778Z,950.44
2018-08-10T05:11:08.686Z,950.43
2018-08-10T05:12:08.593Z,950.47
2018-08-10T05:13:08.509Z,950.48
2018-08-10T05:14:08.441Z,950.49
2018-08-10T05:15:08.327Z,950.45
2018-08-10T05:16:08.240Z,950.50
2018-08-10T05:17:08.154Z,950.51
2018-08-10T05:18:08.062Z,950.49
2018-08-10T05:19:07.987Z,950.52
2018-08-10T05:20:07.881Z,950.58
2018-08-10T05:21:07.809Z,950.62
2018-08-10T05:22:07.705Z,950.61
2018-08-10T05:23:07.717Z,950.62
2018-08-10T05:24:07.561Z,950.66
2018-08-10T05:25:07.435Z,950.69
2018-08-10T05:26:07.348Z,950.67
2018-08-10T05:27:07.256Z,950.70
2018-08-10T05:28:07.173Z,950.74
2018-08-10T05:29:07.094Z,950.79
2018-08-10T05:30:07.094Z,950.84
2018-08-10T05:31:06.900Z,950.83
2018-08-10T05:32:06.812Z,950.79
2018-08-10T05:33:06.767Z,950.82
2018-08-10T05:34:06.649Z,950.86
2018-08-10T05:35:06.542Z,950.87
2018-08-10T05:36:06.453Z,950.88
2018-08-10T05:37:06.462Z,950.90
2018-08-10T05:38:06.274Z,950.95
2018-08-10T05:39:06.204Z,950.96
2018-08-10T05:40:06.095Z,950.97
2018-08-10T05:41:06.006Z,950.99
2018-08-10T05:42:05.919Z,951.02
2018-08-10T05:43:05.830Z,951.05
2018-08-10T05:44:05.953Z,951.05
2018-08-10T05:45:05.651Z,951.10
2018-08-10T05:46:05.560Z,951.10
2018-08-10T05:47:05.520Z,951.10
2018-08-10T05:48:05.415Z,951.16
2018-08-10T05:49:05.310Z,951.16
2018-08-10T05:50:05.207Z,951.13
2018-08-10T05:51:05.279Z,951.17
2018-08-10T05:52:05.025Z,951.19
2018-08-10T05:53:04.939Z,951.19
2018-08-10T05:54:04.865Z,951.22
2018-08-10T05:55:04.758Z,951.23
2018-08-10T05:56:04.669Z,951.25
2018-08-10T05:57:04.584Z,951.27
2018-08-10T05:58:04.598Z,951.33
2018-08-10T05:59:04.421Z,951.31
2018-08-10T06:00:04.311Z,951.35
2018-08-10T06:01:04.228Z,951.35
2018-08-10T06:02:04.137Z,951.35
2018-08-10T06:03:04.047Z,951.33
2018-08-10T06:04:04.126Z,951.33
2018-08-10T06:05:03.971Z,951.34
2018-08-10T06:06:03.780Z,951.33
2018-08-10T06:07:03.690Z,951.36
2018-08-10T06:08:03.606Z,951.38
2018-08-10T06:09:03.536Z,951.39
2018-08-10T06:10:03.425Z,951.30
2018-08-10T06:11:03.334Z,951.26
2018-08-10T06:12:03.352Z,951.28
2018-08-10T06:13:03.170Z,951.30
2018-08-10T06:14:03.087Z,951.33
2018-08-10T06:15:02.985Z,951.33
2018-08-10T06:16:02.901Z,951.32
2018-08-10T06:17:02.803Z,951.41
2018-08-10T06:18:02.719Z,951.47
2018-08-10T06:19:02.748Z,951.48
2018-08-10T06:20:02.687Z,951.52
2018-08-10T06:21:02.449Z,951.54
2018-08-10T06:22:02.360Z,951.55
2018-08-10T06:23:02.344Z,951.56
2018-08-10T06:24:02.202Z,951.57
2018-08-10T06:25:02.199Z,951.50
2018-08-10T06:26:02.104Z,951.53
2018-08-10T06:27:01.918Z,951.53
2018-08-10T06:28:01.824Z,951.59
2018-08-10T06:29:01.755Z,951.55
2018-08-10T06:30:01.648Z,951.62
2018-08-10T06:31:01.558Z,951.62
2018-08-10T06:32:01.473Z,951.59
2018-08-10T06:33:01.383Z,951.64
2018-08-10T06:34:01.381Z,951.59
2018-08-10T06:35:01.215Z,951.58
2018-08-10T06:36:01.117Z,951.56
2018-08-10T06:37:01.028Z,951.54
2018-08-10T06:38:00.941Z,951.59
2018-08-10T06:39:00.869Z,951.61
2018-08-10T06:40:00.861Z,951.65
2018-08-10T06:41:00.677Z,951.66
2018-08-10T06:42:00.585Z,951.71
2018-08-10T06:43:00.494Z,951.73
2018-08-10T06:44:00.427Z,951.71
2018-08-10T06:45:00.404Z,951.77
2018-08-10T06:46:00.229Z,951.81
2018-08-10T06:47:00.142Z,951.79
2018-08-10T06:48:00.050Z,951.77
2018-08-10T06:48:59.979Z,951.84
2018-08-10T06:49:59.874Z,951.83
2018-08-10T06:50:59.786Z,951.85
2018-08-10T06:51:59.698Z,951.85
2018-08-10T06:52:59.612Z,951.88
2018-08-10T06:53:59.537Z,951.93
2018-08-10T06:54:59.429Z,951.95
2018-08-10T06:55:59.363Z,951.94
2018-08-10T06:56:59.255Z,951.97
2018-08-10T06:57:59.165Z,952.02
2018-08-10T06:58:59.079Z,951.98
2018-08-10T06:59:59.000Z,952.06
2018-08-10T07:00:58.913Z,952.10
2018-08-10T07:01:58.807Z,952.03
2018-08-10T07:02:58.717Z,952.07
2018-08-10T07:03:58.632Z,952.09
2018-08-10T07:04:58.557Z,952.12
2018-08-10T07:05:58.452Z,952.12
2018-08-10T07:06:58.362Z,952.17
2018-08-10T07:07:58.273Z,952.17
2018-08-10T07:08:58.213Z,952.18
2018-08-10T07:09:58.112Z,952.20
2018-08-10T07:10:58.012Z,952.29
2018-08-10T07:11:57.920Z,952.33
2018-08-10T07:12:57.851Z,952.36
2018-08-10T07:13:57.748Z,952.42
2018-08-10T07:14:57.668Z,952.54
2018-08-10T07:15:57.568Z,952.64
2018-08-10T07:16:57.474Z,952.81
2018-08-10T07:17:57.385Z,952.90
2018-08-10T07:18:57.303Z,953.23
2018-08-10T07:19:57.235Z,953.31
2018-08-10T07:20:57.127Z,953.46
2018-08-10T07:21:57.031Z,953.42
2018-08-10T07:22:56.948Z,952.84
2018-08-10T07:23:56.856Z,952.81
2018-08-10T07:24:56.787Z,953.03
2018-08-10T07:25:56.679Z,952.80
2018-08-10T07:26:56.626Z,952.74
2018-08-10T07:27:56.505Z,952.76
2018-08-10T07:28:56.417Z,952.69
2018-08-10T07:29:56.345Z,952.81
2018-08-10T07:30:56.236Z,953.77
2018-08-10T07:31:56.152Z,953.12
2018-08-10T07:32:56.064Z,952.75
2018-08-10T07:33:55.975Z,952.67
2018-08-10T07:34:55.908Z,952.68
2018-08-10T07:35:55.797Z,952.68
2018-08-10T07:36:55.712Z,952.63
2018-08-10T07:37:55.624Z,952.66
2018-08-10T07:38:55.533Z,952.59
2018-08-10T07:39:55.463Z,952.60
2018-08-10T07:40:55.361Z,952.61
2018-08-10T07:41:55.272Z,952.60
2018-08-10T07:42:55.185Z,952.55
2018-08-10T07:43:55.096Z,952.58
2018-08-10T07:44:55.024Z,952.54
2018-08-10T07:45:54.926Z,952.50
2018-08-10T07:46:54.834Z,952.49
2018-08-10T07:47:54.758Z,952.55
2018-08-10T07:48:54.660Z,952.56
2018-08-10T07:49:54.586Z,952.60
2018-08-10T07:50:54.482Z,952.64
2018-08-10T07:51:54.394Z,952.68
2018-08-10T07:52:54.306Z,952.71
2018-08-10T07:53:54.222Z,952.75
2018-08-10T07:54:54.150Z,952.81
2018-08-10T07:55:54.046Z,952.90
2018-08-10T07:56:53.956Z,952.92
2018-08-10T07:57:53.870Z,952.95
2018-08-10T07:58:53.791Z,952.96
2018-08-10T07:59:53.711Z,952.94
2018-08-10T08:00:53.604Z,952.90
2018-08-10T08:01:53.517Z,952.87
2018-08-10T08:02:53.431Z,952.91
2018-08-10T08:03:53.340Z,952.91
2018-08-10T08:04:53.279Z,952.96
2018-08-10T08:05:53.166Z,952.94
2018-08-10T08:06:53.097Z,952.93
2018-08-10T08:07:53.026Z,952.89
2018-08-10T08:08:52.904Z,952.87
2018-08-10T08:09:52.935Z,952.88
2018-08-10T08:10:52.727Z,952.89
2018-08-10T08:11:52.640Z,952.88
2018-08-10T08:12:52.556Z,952.89
2018-08-10T08:13:52.466Z,952.90
2018-08-10T08:14:52.396Z,952.91
2018-08-10T08:15:52.294Z,952.98
2018-08-10T08:16:52.205Z,952.94
2018-08-10T08:17:52.141Z,952.91
2018-08-10T08:18:52.031Z,952.90
2018-08-10T08:19:51.960Z,952.93
2018-08-10T08:20:51.852Z,952.89
2018-08-10T08:21:51.765Z,952.88
2018-08-10T08:22:51.681Z,952.88
2018-08-10T08:23:51.712Z,952.85
2018-08-10T08:24:51.522Z,952.82
2018-08-10T08:25:51.415Z,952.93
2018-08-10T08:26:51.330Z,952.93
2018-08-10T08:27:51.244Z,952.98
2018-08-10T08:28:51.152Z,953.00
2018-08-10T08:29:51.085Z,953.10
2018-08-10T08:30:51.084Z,953.12
2018-08-10T08:31:50.894Z,953.23
2018-08-10T08:32:50.802Z,953.25
2018-08-10T08:33:50.716Z,953.27
2018-08-10T08:34:50.836Z,953.33
2018-08-10T08:35:50.544Z,953.36
2018-08-10T08:36:50.478Z,953.48
2018-08-10T08:37:50.466Z,953.55
2018-08-10T08:38:50.278Z,953.56
2018-08-10T08:39:50.209Z,953.49
2018-08-10T08:40:50.183Z,953.45
2018-08-10T08:41:50.021Z,953.50
2018-08-10T08:42:49.932Z,953.71
2018-08-10T08:43:49.846Z,953.67
2018-08-10T08:44:49.866Z,953.69
2018-08-10T08:45:49.899Z,953.72
2018-08-10T08:46:49.584Z,953.50
2018-08-10T08:47:49.494Z,953.41
2018-08-10T08:48:49.412Z,953.33
2018-08-10T08:49:49.325Z,953.35
2018-08-10T08:50:49.251Z,953.47
2018-08-10T08:51:49.249Z,953.49
2018-08-10T08:52:49.062Z,953.55
2018-08-10T08:53:48.981Z,953.71
2018-08-10T08:54:48.890Z,953.86
2018-08-10T08:55:48.820Z,953.85
2018-08-10T08:56:48.714Z,953.86
2018-08-10T08:57:48.627Z,953.84
2018-08-10T08:58:48.653Z,953.87
2018-08-10T08:59:48.457Z,954.25
2018-08-10T09:00:48.388Z,953.76
2018-08-10T09:01:48.289Z,953.71
2018-08-10T09:02:48.196Z,953.62
2018-08-10T09:03:48.111Z,953.55
2018-08-10T09:04:48.026Z,953.84
2018-08-10T09:05:48.060Z,953.96
2018-08-10T09:06:47.853Z,953.44
2018-08-10T09:07:47.842Z,953.31
2018-08-10T09:08:47.679Z,953.27
2018-08-10T09:09:47.602Z,953.26
2018-08-10T09:10:47.530Z,953.24
2018-08-10T09:11:47.424Z,953.28
2018-08-10T09:12:47.451Z,953.33
2018-08-10T09:13:47.258Z,953.48
2018-08-10T09:14:47.167Z,953.47
2018-08-10T09:15:47.125Z,953.55
2018-08-10T09:16:46.998Z,953.55
2018-08-10T09:17:46.930Z,953.45
2018-08-10T09:18:46.825Z,953.44
2018-08-10T09:19:46.841Z,953.46
2018-08-10T09:20:46.684Z,953.43
2018-08-10T09:21:46.567Z,953.41
2018-08-10T09:22:46.479Z,953.43
2018-08-10T09:23:46.394Z,953.47
2018-08-10T09:24:46.309Z,953.53
2018-08-10T09:25:46.241Z,953.66
2018-08-10T09:26:46.244Z,953.62
2018-08-10T09:27:46.052Z,953.73
2018-08-10T09:28:45.973Z,953.86
2018-08-10T09:29:45.881Z,953.65
2018-08-10T09:30:45.813Z,954.03
2018-08-10T09:31:45.709Z,953.86
2018-08-10T09:32:45.626Z,953.92
2018-08-10T09:33:45.540Z,953.81
2018-08-10T09:34:45.455Z,953.64
2018-08-10T09:35:45.381Z,953.63
2018-08-10T09:36:45.325Z,953.65
2018-08-10T09:37:45.196Z,953.85
2018-08-10T09:38:45.113Z,953.88
2018-08-10T09:39:45.047Z,953.75
2018-08-10T09:40:44.959Z,953.68
2018-08-10T09:41:44.859Z,953.77
2018-08-10T09:42:44.774Z,953.78
2018-08-10T09:43:44.690Z,953.76
2018-08-10T09:44:44.605Z,953.78
2018-08-10T09:45:44.535Z,953.73
2018-08-10T09:46:44.436Z,953.77
2018-08-10T09:47:44.351Z,953.65
2018-08-10T09:48:44.268Z,953.59
2018-08-10T09:49:44.179Z,953.66
2018-08-10T09:50:44.122Z,953.71
2018-08-10T09:51:44.063Z,953.73
2018-08-10T09:52:43.926Z,953.85
2018-08-10T09:53:43.841Z,953.96
2018-08-10T09:54:43.753Z,954.18
2018-08-10T09:55:43.687Z,954.04
2018-08-10T09:56:43.586Z,954.00
2018-08-10T09:57:43.500Z,954.13
2018-08-10T09:58:43.414Z,954.34
2018-08-10T09:59:43.381Z,954.18
2018-08-10T10:00:43.265Z,954.13
2018-08-10T10:01:43.158Z,953.95
2018-08-10T10:02:43.076Z,953.91
2018-08-10T10:03:42.992Z,953.99
2018-08-10T10:04:42.906Z,953.91
2018-08-10T10:05:42.837Z,953.97
2018-08-10T10:06:42.767Z,953.91
2018-08-10T10:07:42.653Z,953.83
2018-08-10T10:08:42.567Z,953.91
2018-08-10T10:09:42.482Z,953.92
2018-08-10T10:10:42.413Z,953.97
2018-08-10T10:11:42.313Z,953.86
2018-08-10T10:12:42.240Z,953.82
2018-08-10T10:13:42.141Z,953.83
2018-08-10T10:14:42.107Z,953.89
2018-08-10T10:15:41.992Z,953.87
2018-08-10T10:16:41.888Z,953.91
2018-08-10T10:17:41.802Z,953.96
2018-08-10T10:18:41.716Z,953.86
2018-08-10T10:19:41.632Z,953.85
2018-08-10T10:20:41.567Z,953.82
2018-08-10T10:21:41.466Z,953.78
2018-08-10T10:22:41.383Z,953.82
2018-08-10T10:23:41.299Z,953.73
2018-08-10T10:24:41.208Z,953.70
2018-08-10T10:25:41.524Z,953.68
2018-08-10T10:26:41.040Z,953.67
2018-08-10T10:27:40.955Z,953.64
2018-08-10T10:28:40.874Z,953.65
2018-08-10T10:29:40.787Z,953.68
2018-08-10T10:30:40.706Z,953.68
2018-08-10T10:31:40.636Z,953.69
2018-08-10T10:32:40.539Z,953.63
2018-08-10T10:33:40.450Z,953.63
2018-08-10T10:34:40.364Z,953.59
2018-08-10T10:35:40.281Z,953.58
2018-08-10T10:36:40.214Z,953.57
2018-08-10T10:37:40.111Z,953.61
2018-08-10T10:38:40.025Z,953.64
2018-08-10T10:39:39.943Z,953.73
2018-08-10T10:40:39.858Z,953.72
2018-08-10T10:41:39.788Z,953.77
2018-08-10T10:42:39.684Z,953.77
2018-08-10T10:43:39.605Z,953.77
2018-08-10T10:44:39.516Z,953.68
2018-08-10T10:45:39.436Z,953.63
2018-08-10T10:46:39.367Z,953.62
2018-08-10T10:47:39.264Z,953.60
2018-08-10T10:48:39.180Z,953.68
2018-08-10T10:49:39.096Z,953.67
2018-08-10T10:50:39.009Z,953.62
2018-08-10T10:51:38.943Z,953.67
2018-08-10T10:52:38.841Z,953.61
2018-08-10T10:53:38.755Z,953.64
2018-08-10T10:54:38.671Z,953.70
2018-08-10T10:55:38.647Z,953.62
2018-08-10T10:56:38.581Z,953.56
2018-08-10T10:57:38.412Z,953.51
2018-08-10T10:58:38.328Z,953.53
2018-08-10T10:59:38.243Z,953.53
2018-08-10T11:00:38.157Z,953.59
2018-08-10T11:01:38.090Z,953.66
2018-08-10T11:02:37.987Z,953.70
2018-08-10T11:03:37.902Z,953.71
2018-08-10T11:04:37.818Z,953.66
2018-08-10T11:05:37.730Z,953.68
2018-08-10T11:06:37.680Z,953.70
2018-08-10T11:07:37.565Z,953.72
2018-08-10T11:08:37.476Z,953.68
2018-08-10T11:09:37.398Z,953.71
2018-08-10T11:10:37.307Z,953.71
2018-08-10T11:11:37.237Z,953.71
2018-08-10T11:12:37.134Z,953.69
2018-08-10T11:13:37.049Z,953.73
2018-08-10T11:14:36.964Z,953.77
2018-08-10T11:15:36.877Z,953.77
2018-08-10T11:16:36.808Z,953.77
2018-08-10T11:17:36.708Z,953.78
2018-08-10T11:18:36.624Z,953.84
2018-08-10T11:19:36.555Z,953.84
2018-08-10T11:20:36.450Z,953.79
2018-08-10T11:21:36.381Z,953.73
2018-08-10T11:22:36.280Z,953.71
2018-08-10T11:23:36.197Z,953.79
2018-08-10T11:24:36.109Z,953.73
2018-08-10T11:25:36.203Z,953.73
2018-08-10T11:26:35.998Z,953.77
2018-08-10T11:27:35.854Z,953.78
2018-08-10T11:28:35.774Z,953.77
2018-08-10T11:29:35.681Z,953.81
2018-08-10T11:30:35.594Z,953.79
2018-08-10T11:31:35.540Z,953.88
2018-08-10T11:32:35.547Z,953.91
2018-08-10T11:33:35.342Z,953.90
2018-08-10T11:34:35.253Z,953.91
2018-08-10T11:35:35.169Z,953.82
2018-08-10T11:36:35.101Z,953.85
2018-08-10T11:37:34.997Z,953.84
2018-08-10T11:38:34.913Z,953.89
2018-08-10T11:39:34.933Z,953.89
2018-08-10T11:40:34.740Z,953.99
2018-08-10T11:41:34.793Z,954.03
2018-08-10T11:42:34.569Z,954.03
2018-08-10T11:43:34.482Z,954.10
2018-08-10T11:44:34.398Z,954.11
2018-08-10T11:45:34.312Z,954.29
2018-08-10T11:46:34.351Z,954.35
2018-08-10T11:47:34.138Z,954.66
2018-08-10T11:48:34.054Z,954.59
2018-08-10T11:49:33.971Z,954.51
2018-08-10T11:50:33.882Z,954.22
2018-08-10T11:51:33.815Z,954.20
2018-08-10T11:52:33.755Z,954.20
2018-08-10T11:53:33.739Z,953.99
2018-08-10T11:54:33.544Z,953.90
2018-08-10T11:55:33.462Z,953.91
2018-08-10T11:56:33.392Z,953.88
2018-08-10T11:57:33.339Z,953.85
2018-08-10T11:58:33.209Z,953.95
2018-08-10T11:59:33.124Z,954.03
2018-08-10T12:00:33.142Z,954.13
2018-08-10T12:01:32.974Z,954.17
2018-08-10T12:02:32.871Z,954.19
2018-08-10T12:03:32.788Z,954.17
2018-08-10T12:04:32.703Z,954.16
2018-08-10T12:05:32.622Z,954.07
2018-08-10T12:06:32.554Z,954.06
2018-08-10T12:07:32.556Z,954.08
2018-08-10T12:08:32.368Z,954.07
2018-08-10T12:09:32.285Z,954.05
2018-08-10T12:10:32.195Z,954.07
2018-08-10T12:11:32.130Z,954.04
2018-08-10T12:12:32.069Z,954.08
2018-08-10T12:13:31.946Z,954.12
2018-08-10T12:14:31.974Z,954.13
2018-08-10T12:15:31.778Z,954.04
2018-08-10T12:16:31.711Z,954.11
2018-08-10T12:17:31.602Z,954.13
2018-08-10T12:18:31.526Z,954.10
2018-08-10T12:19:31.438Z,954.10
2018-08-10T12:20:31.351Z,954.13
2018-08-10T12:21:31.409Z,954.09
2018-08-10T12:22:31.198Z,954.13
2018-08-10T12:23:31.096Z,954.15
2018-08-10T12:24:31.012Z,954.07
2018-08-10T12:25:30.944Z,954.12
2018-08-10T12:26:30.851Z,954.06
2018-08-10T12:27:30.770Z,954.06